Time;durP1;ratioP1;P1;durP2;ratioP2;P2;SDS_P1;SDS_P2;PMS_P1;PMS_P2;Temp;Humidity;BMP_temperature;BMP_pressure;BME280_temperature;BME280_humidity;BME280_pressure;Samples;Min_cycle;Max_cycle;Signal;HPM_P1;HPM_P2
2023/09/06 00:00:26;;;;;;;9.02;5.43;;;;;;;20.77;100.00;101860.16;5028159;28;20443;-65
2023/09/06 00:02:52;;;;;;;6.60;4.25;;;;;;;20.84;100.00;101866.84;5026770;28;20365;-64
2023/09/06 00:05:17;;;;;;;4.90;3.97;;;;;;;20.88;100.00;101868.38;5026324;28;20088;-64
2023/09/06 00:07:44;;;;;;;7.72;4.53;;;;;;;20.87;100.00;101869.34;5026781;28;20079;-58
2023/09/06 00:10:10;;;;;;;5.75;4.30;;;;;;;20.88;100.00;101868.38;5028472;28;20541;-60
2023/09/06 00:12:35;;;;;;;4.85;3.97;;;;;;;20.91;100.00;101868.22;5031699;28;20116;-61
2023/09/06 00:15:01;;;;;;;4.72;4.03;;;;;;;20.92;100.00;101864.59;5028938;28;20526;-65
2023/09/06 00:17:26;;;;;;;5.13;3.72;;;;;;;20.93;100.00;101868.13;5028734;28;20376;-67
2023/09/06 00:19:52;;;;;;;7.90;3.95;;;;;;;20.92;100.00;101863.75;5031320;28;20025;-66
2023/09/06 00:22:20;;;;;;;4.50;3.72;;;;;;;20.92;100.00;101861.91;5031205;28;20025;-57
2023/09/06 00:24:45;;;;;;;5.47;3.70;;;;;;;20.89;100.00;101875.47;5028288;28;20558;-62
2023/09/06 00:27:10;;;;;;;6.22;4.18;;;;;;;20.92;100.00;101869.94;5029041;28;20116;-63
2023/09/06 00:29:36;;;;;;;8.13;4.05;;;;;;;20.94;100.00;101868.03;5029913;28;20148;-65
2023/09/06 00:32:01;;;;;;;5.22;4.13;;;;;;;20.95;100.00;101858.19;5030856;28;20396;-67
2023/09/06 00:34:27;;;;;;;6.40;4.05;;;;;;;20.93;100.00;101866.34;5028963;28;20029;-65
2023/09/06 00:36:54;;;;;;;4.28;3.88;;;;;;;20.90;100.00;101865.66;5029808;28;20097;-56
2023/09/06 00:39:20;;;;;;;6.28;3.83;;;;;;;20.90;100.00;101862.97;5029735;28;20022;-64
2023/09/06 00:41:45;;;;;;;4.97;4.13;;;;;;;20.90;100.00;101860.28;5029578;28;20024;-67
2023/09/06 00:44:10;;;;;;;5.63;3.90;;;;;;;20.90;100.00;101855.81;5030469;28;20051;-65
2023/09/06 00:46:37;;;;;;;5.00;3.97;;;;;;;20.87;100.00;101864.00;5030641;28;20392;-66
2023/09/06 00:49:03;;;;;;;7.72;3.72;;;;;;;20.83;100.00;101862.47;5029215;28;20033;-67
2023/09/06 00:51:29;;;;;;;5.90;3.90;;;;;;;20.79;100.00;101853.75;5028031;28;20029;-61
2023/09/06 00:53:54;;;;;;;7.57;3.88;;;;;;;20.77;100.00;101854.81;5028167;28;20033;-64
2023/09/06 00:56:20;;;;;;;9.85;3.63;;;;;;;20.71;100.00;101856.03;5030180;28;20021;-62
2023/09/06 00:58:46;;;;;;;4.03;3.70;;;;;;;20.68;100.00;101862.44;5028652;28;20061;-54
2023/09/06 01:01:11;;;;;;;4.97;3.92;;;;;;;20.68;100.00;101862.44;5030152;28;20029;-61
2023/09/06 01:03:40;;;;;;;7.70;3.90;;;;;;;20.63;100.00;101867.22;5027914;28;20032;-63
2023/09/06 01:06:08;;;;;;;6.60;3.72;;;;;;;20.61;100.00;101869.13;5028600;28;20381;-64
2023/09/06 01:08:40;;;;;;;6.25;3.58;;;;;;;20.62;100.00;101870.00;5029673;28;20485;-65
2023/09/06 01:11:21;;;;;;;6.43;4.03;;;;;;;20.58;100.00;101874.66;5029277;28;20033;-67
2023/09/06 01:13:58;;;;;;;8.88;4.53;;;;;;;20.55;100.00;101877.50;5030413;28;20029;-59
2023/09/06 01:16:32;;;;;;;7.18;3.90;;;;;;;20.52;100.00;101875.00;5029757;28;20095;-65
2023/09/06 01:18:58;;;;;;;11.85;4.43;;;;;;;20.51;100.00;101865.28;5028042;28;20026;-63
2023/09/06 01:21:26;;;;;;;7.78;4.45;;;;;;;20.51;100.00;101867.94;5011129;28;20380;-67
2023/09/06 01:23:52;;;;;;;6.50;4.72;;;;;;;20.44;100.00;101867.47;5029551;28;20776;-67
2023/09/06 01:26:18;;;;;;;6.85;4.55;;;;;;;20.40;100.00;101869.47;5029999;28;20021;-66
2023/09/06 01:28:43;;;;;;;5.10;4.35;;;;;;;20.41;100.00;101864.97;5029932;28;20491;-64
2023/09/06 01:31:09;;;;;;;7.68;4.03;;;;;;;20.37;100.00;101869.63;5027379;28;20032;-64
2023/09/06 01:33:34;;;;;;;5.63;4.95;;;;;;;20.28;100.00;101876.41;5026716;28;20021;-58
2023/09/06 01:36:00;;;;;;;6.30;4.45;;;;;;;20.18;100.00;101865.38;5027750;28;20026;-61
2023/09/06 01:38:25;;;;;;;6.45;4.95;;;;;;;20.12;100.00;101871.09;5030474;28;20033;-54
2023/09/06 01:40:51;;;;;;;7.97;4.68;;;;;;;20.06;100.00;101874.13;5029239;28;20112;-61
2023/09/06 01:43:18;;;;;;;8.55;5.20;;;;;;;19.99;100.00;101870.91;5028190;28;20032;-63
2023/09/06 01:45:50;;;;;;;5.00;4.43;;;;;;;19.95;100.00;101877.38;5028720;28;20026;-67
2023/09/06 01:48:16;;;;;;;5.72;4.97;;;;;;;19.89;100.00;101873.25;5029756;28;20120;-62
2023/09/06 01:50:41;;;;;;;8.27;4.45;;;;;;;19.89;100.00;101870.56;5029106;28;20448;-67
2023/09/06 01:53:07;;;;;;;5.97;4.85;;;;;;;19.91;100.00;101875.84;5027992;28;20042;-62
2023/09/06 01:55:32;;;;;;;6.47;5.57;;;;;;;19.92;100.00;101877.53;5028489;28;20109;-63
2023/09/06 01:57:57;;;;;;;7.53;4.47;;;;;;;19.89;100.00;101875.91;5028712;28;20376;-60
2023/09/06 02:02:48;;;;;;;6.90;4.85;;;;;;;19.84;100.00;101886.03;5029588;28;20035;-62
2023/09/06 02:05:14;;;;;;;5.40;4.35;;;;;;;19.79;100.00;101880.06;5028777;28;20029;-64
2023/09/06 02:07:39;;;;;;;9.23;5.18;;;;;;;19.74;100.00;101887.50;5027002;28;20022;-60
2023/09/06 02:10:05;;;;;;;5.72;4.80;;;;;;;19.73;100.00;101883.94;5028427;28;20434;-65
2023/09/06 02:12:30;;;;;;;10.70;5.13;;;;;;;19.72;100.00;101884.91;5028558;28;20122;-65
2023/09/06 02:14:56;;;;;;;7.15;5.05;;;;;;;19.65;100.00;101879.03;5031251;28;20060;-61
2023/09/06 02:17:24;;;;;;;6.78;4.80;;;;;;;19.65;100.00;101881.72;5028511;28;20033;-65
2023/09/06 02:19:49;;;;;;;7.22;5.45;;;;;;;19.57;100.00;101879.47;5026551;28;20022;-65
2023/09/06 02:22:14;;;;;;;6.82;4.95;;;;;;;19.56;100.00;101885.75;5028890;28;20022;-65
2023/09/06 02:24:40;;;;;;;6.38;4.93;;;;;;;19.49;100.00;101878.16;5027998;28;20049;-65
2023/09/06 02:27:05;;;;;;;8.55;5.18;;;;;;;19.44;100.00;101884.63;5028701;28;20124;-64
2023/09/06 02:29:31;;;;;;;8.32;5.35;;;;;;;19.44;100.00;101883.75;5028643;28;20111;-65
2023/09/06 02:31:56;;;;;;;8.68;5.30;;;;;;;19.41;100.00;101882.13;5026702;28;20453;-66
2023/09/06 02:34:21;;;;;;;7.18;5.50;;;;;;;19.37;100.00;101888.59;5027281;28;20116;-58
2023/09/06 02:36:47;;;;;;;7.38;4.85;;;;;;;19.34;100.00;101882.53;5028129;28;20033;-55
2023/09/06 02:39:13;;;;;;;7.45;5.55;;;;;;;19.29;100.00;101883.66;5027428;28;20026;-65
2023/09/06 02:41:38;;;;;;;6.95;5.07;;;;;;;19.28;100.00;101886.41;5028452;28;20187;-65
2023/09/06 02:44:05;;;;;;;8.32;5.25;;;;;;;19.24;100.00;101884.88;5027478;28;20072;-63
2023/09/06 02:46:33;;;;;;;6.63;5.35;;;;;;;19.21;100.00;101887.69;5025917;28;20033;-62
2023/09/06 02:49:01;;;;;;;6.22;5.50;;;;;;;19.17;100.00;101890.53;5027609;28;20488;-64
2023/09/06 02:51:29;;;;;;;8.88;5.40;;;;;;;19.15;100.00;101891.56;5027674;28;20056;-65
2023/09/06 02:53:56;;;;;;;7.70;4.70;;;;;;;19.14;100.00;101889.84;5027729;28;20535;-65
2023/09/06 02:56:23;;;;;;;7.00;4.97;;;;;;;19.14;100.00;101887.19;5028313;28;20105;-58
2023/09/06 02:58:48;;;;;;;7.13;5.28;;;;;;;19.10;100.00;101883.78;5027085;28;20029;-63
2023/09/06 03:01:19;;;;;;;8.80;5.43;;;;;;;19.10;100.00;101886.47;5026587;28;20025;-63
2023/09/06 03:03:48;;;;;;;5.88;5.22;;;;;;;19.10;100.00;101889.13;5027104;28;20109;-65
2023/09/06 03:06:18;;;;;;;8.57;5.97;;;;;;;19.11;100.00;101892.69;5027733;28;20056;-59
2023/09/06 03:08:46;;;;;;;6.45;5.85;;;;;;;19.12;100.00;101891.72;5028240;28;20040;-66
2023/09/06 03:11:14;;;;;;;10.75;5.57;;;;;;;19.17;100.00;101895.00;5026190;28;20022;-65
2023/09/06 03:13:41;;;;;;;8.27;5.68;;;;;;;19.21;100.00;101893.03;5025965;28;20034;-63
2023/09/06 03:16:07;;;;;;;9.73;5.95;;;;;;;19.19;100.00;101887.78;5028159;28;20033;-63
2023/09/06 03:18:32;;;;;;;7.22;5.47;;;;;;;19.19;100.00;101887.78;5026292;28;20499;-56
2023/09/06 03:21:04;;;;;;;7.00;5.47;;;;;;;19.21;100.00;101895.72;5027544;28;20075;-62
2023/09/06 03:23:29;;;;;;;8.85;6.40;;;;;;;19.17;100.00;101889.66;5028121;28;20053;-65
2023/09/06 03:25:55;;;;;;;6.93;5.78;;;;;;;19.12;100.00;101889.06;5026961;28;20033;-65
2023/09/06 03:28:21;;;;;;;10.98;5.57;;;;;;;19.10;100.00;101897.16;5027003;28;20025;-65
2023/09/06 03:30:47;;;;;;;7.32;5.65;;;;;;;19.08;100.00;101901.69;5027158;28;20076;-64
2023/09/06 03:33:13;;;;;;;8.60;6.30;;;;;;;19.06;100.00;101901.75;5025492;28;20102;-62
2023/09/06 03:35:38;;;;;;;6.00;5.20;;;;;;;19.07;100.00;101899.94;5028043;28;20471;-61
2023/09/06 03:38:08;;;;;;;12.32;6.95;;;;;;;19.06;100.00;101898.22;5029546;28;20048;-62
2023/09/06 03:40:37;;;;;;;8.18;5.13;;;;;;;19.08;100.00;101903.53;5026754;28;20029;-65
2023/09/06 03:43:06;;;;;;;12.18;5.88;;;;;;;19.07;100.00;101905.28;5025779;28;20526;-59
2023/09/06 03:45:35;;;;;;;7.15;5.90;;;;;;;19.06;100.00;101907.09;5028497;28;20058;-64
2023/09/06 03:48:04;;;;;;;7.15;5.88;;;;;;;19.06;100.00;101907.09;5030555;28;20037;-65
2023/09/06 03:50:30;;;;;;;8.55;5.78;;;;;;;19.04;100.00;101906.31;5031176;28;20420;-65
2023/09/06 03:52:55;;;;;;;11.40;5.97;;;;;;;19.04;100.00;101902.78;5031003;28;20187;-65
2023/09/06 03:55:21;;;;;;;9.45;5.95;;;;;;;19.04;100.00;101905.44;5031656;28;20086;-65
2023/09/06 03:57:46;;;;;;;6.97;5.82;;;;;;;19.03;100.00;101903.75;5030479;28;20078;-62
2023/09/06 04:00:26;;;;;;;8.77;6.28;;;;;;;19.02;100.00;101905.53;5032101;28;20049;-64
2023/09/06 04:02:56;;;;;;;8.07;5.53;;;;;;;19.02;100.00;101902.03;5030017;28;20030;-62
2023/09/06 04:05:22;;;;;;;7.07;5.47;;;;;;;19.01;100.00;101909.16;5030624;28;20037;-65
2023/09/06 04:07:58;;;;;;;11.93;5.05;;;;;;;19.02;100.00;101912.69;5031774;28;20056;-59
2023/09/06 04:10:24;;;;;;;7.18;5.93;;;;;;;19.01;100.00;101917.16;5031051;28;20083;-65
2023/09/06 04:12:50;;;;;;;8.82;6.18;;;;;;;18.99;100.00;101912.88;5035731;28;20048;-65
2023/09/06 04:15:21;;;;;;;10.02;6.25;;;;;;;18.94;100.00;101916.63;5030174;28;20033;-63
2023/09/06 04:17:52;;;;;;;9.40;5.68;;;;;;;18.88;100.00;101914.28;5028567;28;20192;-65
2023/09/06 04:20:20;;;;;;;6.70;5.25;;;;;;;18.82;100.00;101901.25;5031551;28;20106;-65
2023/09/06 04:22:47;;;;;;;9.02;6.32;;;;;;;18.76;100.00;101915.78;5029563;28;20042;-62
2023/09/06 04:25:16;;;;;;;7.97;6.43;;;;;;;18.72;100.00;101910.69;5029937;28;20049;-57
2023/09/06 04:27:43;;;;;;;11.15;5.82;;;;;;;18.68;100.00;101910.84;5029902;28;20773;-66
2023/09/06 04:30:09;;;;;;;10.40;6.32;;;;;;;18.67;100.00;101910.91;5029066;28;20080;-65
2023/09/06 04:32:35;;;;;;;8.63;6.43;;;;;;;18.63;100.00;101907.53;5033109;28;20021;-64
2023/09/06 04:35:00;;;;;;;9.23;6.18;;;;;;;18.63;100.00;101912.03;5030704;28;20033;-64
2023/09/06 04:37:26;;;;;;;14.20;6.75;;;;;;;18.63;100.00;101901.34;5028943;28;20365;-67
2023/09/06 04:39:53;;;;;;;13.73;6.53;;;;;;;18.65;100.00;101902.13;5029692;28;20361;-59
2023/09/06 04:42:18;;;;;;;9.77;6.30;;;;;;;18.63;100.00;101910.19;5030150;28;20022;-62
2023/09/06 04:44:44;;;;;;;8.85;6.35;;;;;;;18.61;100.00;101911.22;5031345;28;20087;-60
2023/09/06 04:47:14;;;;;;;8.70;5.63;;;;;;;18.63;100.00;101909.34;5029154;28;20455;-61
2023/09/06 04:49:40;;;;;;;13.98;6.70;;;;;;;18.60;100.00;101913.03;5028873;28;20040;-62
2023/09/06 04:52:05;;;;;;;10.02;6.95;;;;;;;18.56;100.00;101916.81;5029613;28;20053;-66
2023/09/06 04:54:32;;;;;;;10.45;6.80;;;;;;;18.52;100.00;101920.56;5029542;28;20495;-63
2023/09/06 04:56:58;;;;;;;11.95;7.00;;;;;;;18.54;100.00;101916.00;5029327;28;20022;-64
2023/09/06 04:59:23;;;;;;;9.32;6.90;;;;;;;18.54;100.00;101919.53;5030011;28;20087;-55
2023/09/06 05:01:49;;;;;;;9.88;7.07;;;;;;;18.54;100.00;101926.69;5029258;28;20037;-64
2023/09/06 05:04:14;;;;;;;14.07;6.93;;;;;;;18.55;100.00;101925.75;5028021;28;20113;-57
2023/09/06 05:06:40;;;;;;;8.35;6.35;;;;;;;18.58;100.00;101930.94;5028281;28;20100;-54
2023/09/06 05:09:07;;;;;;;12.40;7.00;;;;;;;18.61;100.00;101927.25;5028901;28;20226;-61
2023/09/06 05:11:32;;;;;;;13.10;6.57;;;;;;;18.63;100.00;101928.03;5028998;28;20491;-61
2023/09/06 05:13:57;;;;;;;9.35;6.70;;;;;;;18.65;100.00;101931.47;5028447;28;20311;-64
2023/09/06 05:16:23;;;;;;;13.32;6.68;;;;;;;18.70;100.00;101934.78;5027922;28;20021;-66
2023/09/06 05:18:48;;;;;;;10.13;6.45;;;;;;;18.73;100.00;101939.09;5029596;28;20427;-63
2023/09/06 05:21:13;;;;;;;10.55;6.35;;;;;;;18.81;100.00;101942.22;5047379;28;20116;-63
2023/09/06 05:23:39;;;;;;;9.45;6.97;;;;;;;18.79;100.00;101939.63;5048734;28;20041;-65
2023/09/06 05:26:04;;;;;;;8.13;6.93;;;;;;;18.82;100.00;101941.31;5048706;28;20037;-65
2023/09/06 05:28:31;;;;;;;8.27;6.53;;;;;;;18.84;100.00;101942.06;5047969;28;20052;-65
2023/09/06 05:30:57;;;;;;;10.43;6.35;;;;;;;18.91;100.00;101940.81;5047911;28;20065;-64
2023/09/06 05:33:22;;;;;;;10.15;6.50;;;;;;;18.96;100.00;101937.06;5049682;28;20100;-59
2023/09/06 05:35:47;;;;;;;11.48;6.80;;;;;;;19.05;100.00;101941.88;5048417;28;20484;-57
2023/09/06 05:38:13;;;;;;;12.10;6.35;;;;;;;19.10;100.00;101942.56;5037469;28;20438;-63
2023/09/06 05:40:43;;;;;;;8.55;6.03;;;;;;;19.18;100.00;101948.34;5044846;28;20021;-64
2023/09/06 05:43:08;;;;;;;14.88;7.40;;;;;;;19.19;100.00;101954.56;5036545;28;20057;-62
2023/09/06 05:45:34;;;;;;;10.30;6.55;;;;;;;19.22;100.00;101958.88;5045582;28;20479;-62
2023/09/06 05:47:59;;;;;;;9.10;6.00;;;;;;;19.27;100.00;101960.34;5047420;28;20029;-62
2023/09/06 05:50:26;;;;;;;11.48;5.90;;;;;;;19.48;100.00;101959.31;5047962;28;20033;-62
2023/09/06 05:52:52;;;;;;;5.35;4.85;;;;;;;19.67;100.00;101957.34;5047639;28;20052;-59
2023/09/06 05:55:17;;;;;;;11.15;6.13;;;;;;;19.89;100.00;101961.50;5049001;28;20068;-64
2023/09/06 05:57:43;;;;;;;9.00;5.85;;;;;;;20.05;100.00;101950.81;5034165;28;20032;-65
2023/09/06 06:00:21;;;;;;;8.75;5.68;;;;;;;20.18;100.00;101961.72;5027870;28;20017;-64
2023/09/06 06:02:48;;;;;;;13.07;6.53;;;;;;;20.18;100.00;101958.16;5033383;28;20029;-66
2023/09/06 06:05:14;;;;;;;7.55;6.20;;;;;;;20.17;100.00;101956.44;5027799;28;20288;-58
2023/09/06 06:07:40;;;;;;;11.25;6.40;;;;;;;20.16;100.00;101958.25;5027383;28;20455;-64
2023/09/06 06:10:09;;;;;;;10.95;6.32;;;;;;;20.14;100.00;101962.81;5026979;28;20025;-63
2023/09/06 06:12:35;;;;;;;;;;;;;;;20.11;100.00;101960.34;5028835;28;20036;-63
2023/09/06 06:15:00;;;;;;;9.48;5.88;;;;;;;20.14;100.00;101970.84;5028016;28;19999;-67
2023/09/06 06:17:26;;;;;;;8.70;5.97;;;;;;;20.16;100.00;101968.94;5027728;28;20033;-64
2023/09/06 06:19:51;;;;;;;10.43;6.32;;;;;;;20.22;100.00;101966.88;5027885;28;20079;-64
2023/09/06 06:22:17;;;;;;;10.43;6.57;;;;;;;20.22;100.00;101966.88;5029892;28;20045;-65
2023/09/06 06:24:45;;;;;;;15.30;6.25;;;;;;;20.28;100.00;101974.53;5026722;28;20056;-63
2023/09/06 06:27:10;;;;;;;10.32;6.60;;;;;;;20.33;100.00;101976.03;5027342;28;20036;-64
2023/09/06 06:29:36;;;;;;;8.63;6.18;;;;;;;20.39;100.00;101980.16;5027881;28;20057;-64
2023/09/06 06:32:01;;;;;;;10.10;6.50;;;;;;;20.44;100.00;101980.72;5026164;28;20030;-65
2023/09/06 06:34:26;;;;;;;13.05;6.72;;;;;;;20.51;100.00;101980.38;5028020;28;20032;-56
2023/09/06 06:36:52;;;;;;;14.70;6.22;;;;;;;20.59;100.00;101988.84;5028631;28;20068;-57
2023/09/06 06:39:18;;;;;;;10.50;6.53;;;;;;;20.66;100.00;101992.00;5027508;28;20022;-63
2023/09/06 06:41:43;;;;;;;9.45;6.40;;;;;;;20.72;100.00;101997.00;5026398;28;20067;-62
2023/09/06 06:44:09;;;;;;;15.02;5.85;;;;;;;20.79;100.00;101993.00;5027470;28;20045;-62
2023/09/06 06:46:36;;;;;;;7.35;6.13;;;;;;;20.93;100.00;101991.38;5028135;28;20028;-62
2023/09/06 06:49:04;;;;;;;9.05;6.40;;;;;;;21.03;100.00;101991.66;5027828;28;20658;-66
2023/09/06 06:51:34;;;;;;;11.27;5.50;;;;;;;21.12;100.00;101995.59;5026197;28;20053;-65
2023/09/06 06:54:02;;;;;;;10.25;6.30;;;;;;;21.22;100.00;101994.06;5027874;28;20045;-66
2023/09/06 06:56:28;;;;;;;9.60;6.13;;;;;;;21.30;100.00;101993.63;5028149;28;20025;-65
2023/09/06 06:58:53;;;;;;;9.32;5.80;;;;;;;21.34;100.00;101997.81;5026882;28;20032;-65
2023/09/06 07:01:19;;;;;;;11.63;6.50;;;;;;;21.41;100.00;101996.50;5026395;28;20030;-65
2023/09/06 07:03:45;;;;;;;9.05;6.13;;;;;;;21.46;100.00;101996.19;5027045;28;20476;-65
2023/09/06 07:06:11;;;;;;;9.25;5.75;;;;;;;21.51;100.00;101993.22;5032414;28;20403;-65
2023/09/06 07:08:37;;;;;;;8.82;5.60;;;;;;;21.56;100.00;101988.47;5026051;28;20025;-65
2023/09/06 07:11:06;;;;;;;10.93;6.60;;;;;;;21.60;100.00;101995.34;5026541;28;20038;-57
2023/09/06 07:13:32;;;;;;;12.02;6.22;;;;;;;21.65;100.00;101993.25;5027315;28;20025;-62
2023/09/06 07:15:58;;;;;;;7.32;5.60;;;;;;;21.81;100.00;101997.66;5027729;28;20032;-62
2023/09/06 07:18:24;;;;;;;7.45;5.70;;;;;;;21.87;100.00;102005.31;5027253;28;20021;-64
2023/09/06 07:20:49;;;;;;;8.38;6.20;;;;;;;21.93;100.00;102007.63;5026568;28;20094;-64
2023/09/06 07:23:15;;;;;;;11.68;6.20;;;;;;;22.03;100.00;102010.56;5026441;28;20056;-60
2023/09/06 07:25:46;;;;;;;11.35;6.18;;;;;;;22.15;100.00;102002.69;5026642;28;20036;-65
2023/09/06 07:28:15;;;;;;;12.02;6.32;;;;;;;22.18;100.00;102006.03;5028154;28;20460;-63
2023/09/06 07:30:41;;;;;;;9.43;5.40;;;;;;;22.25;100.00;102014.56;5025620;28;20109;-56
2023/09/06 07:33:07;;;;;;;11.15;5.97;;;;;;;22.33;100.00;102003.28;5025146;28;20490;-63
2023/09/06 07:35:32;;;;;;;7.00;5.50;;;;;;;22.47;100.00;102022.06;5025381;28;20037;-60
2023/09/06 07:37:58;;;;;;;10.88;6.45;;;;;;;22.50;100.00;102012.06;5027598;28;20029;-64
2023/09/06 07:40:24;;;;;;;7.90;5.90;;;;;;;22.56;100.00;102019.72;5026816;28;20033;-65
2023/09/06 07:42:49;;;;;;;8.95;5.72;;;;;;;22.64;100.00;102016.53;5026458;28;20030;-61
2023/09/06 07:45:14;;;;;;;14.40;6.30;;;;;;;22.71;100.00;102021.41;5026290;28;20068;-63
2023/09/06 07:47:40;;;;;;;13.35;5.47;;;;;;;22.79;100.00;102020.03;5026525;28;20037;-64
2023/09/06 07:50:06;;;;;;;7.03;5.00;;;;;;;22.89;100.00;102018.44;5027154;28;20487;-65
2023/09/06 07:52:31;;;;;;;11.98;6.07;;;;;;;22.97;100.00;102013.38;5026558;28;20061;-59
2023/09/06 07:54:58;;;;;;;7.63;6.28;;;;;;;23.09;100.00;102013.53;5026714;28;20064;-62
2023/09/06 07:57:23;;;;;;;9.48;6.60;;;;;;;23.12;100.00;102016.00;5026469;28;20038;-58
2023/09/06 07:59:49;;;;;;;8.52;6.38;;;;;;;23.18;100.00;102020.94;5027336;28;20037;-58
2023/09/06 08:02:14;;;;;;;9.75;5.95;;;;;;;23.32;100.00;102025.34;5029181;28;20029;-62
2023/09/06 08:04:39;;;;;;;10.25;6.30;;;;;;;23.35;100.00;102025.16;5041592;28;20025;-64
2023/09/06 08:07:05;;;;;;;10.10;5.38;;;;;;;23.40;100.00;102022.16;5026366;28;20018;-63
2023/09/06 08:09:30;;;;;;;7.15;6.15;;;;;;;23.49;100.00;102020.66;5021519;28;20049;-59
2023/09/06 08:11:56;;;;;;;9.52;5.28;;;;;;;23.57;100.00;102029.03;5026159;28;20021;-64
2023/09/06 08:14:21;;;;;;;10.20;6.10;;;;;;;23.65;100.00;102025.81;5026215;28;20091;-66
2023/09/06 08:16:46;;;;;;;9.02;6.68;;;;;;;23.74;100.00;102029.66;5025238;28;20021;-64
2023/09/06 08:19:12;;;;;;;12.10;6.22;;;;;;;23.81;100.00;102027.41;5035032;28;20539;-62
2023/09/06 08:21:37;;;;;;;9.10;6.18;;;;;;;23.83;100.00;102029.00;5026116;28;20026;-65
2023/09/06 08:24:03;;;;;;;12.55;6.00;;;;;;;23.89;100.00;102030.38;5025505;28;20352;-62
2023/09/06 08:26:29;;;;;;;11.93;6.75;;;;;;;23.93;100.00;102028.34;5025312;28;20491;-64
2023/09/06 08:28:54;;;;;;;12.43;6.82;;;;;;;23.95;100.00;102031.78;5025720;28;20017;-65
2023/09/06 08:31:20;;;;;;;9.48;6.10;;;;;;;24.03;100.00;102025.84;5023465;28;20435;-59
2023/09/06 08:33:45;;;;;;;6.43;5.80;;;;;;;24.11;100.00;102032.38;5031247;28;20026;-62
2023/09/06 08:36:11;;;;;;;9.05;5.63;;;;;;;24.18;100.00;102031.97;5029928;28;20686;-61
2023/09/06 08:38:39;;;;;;;13.95;6.63;;;;;;;24.27;100.00;102033.13;5029098;28;20049;-61
2023/09/06 08:41:04;;;;;;;9.32;6.97;;;;;;;24.34;100.00;102031.69;5029163;28;20013;-64
2023/09/06 08:43:34;;;;;;;10.27;6.40;;;;;;;24.42;100.00;102029.28;5029731;28;20491;-63
2023/09/06 08:46:03;;;;;;;7.50;5.60;;;;;;;24.52;100.00;102031.28;5030111;28;20083;-65
2023/09/06 08:48:29;;;;;;;7.03;5.65;;;;;;;24.62;100.00;102029.59;5028506;28;20459;-66
2023/09/06 08:50:54;;;;;;;5.68;5.07;;;;;;;24.69;100.00;102036.28;5027987;28;20033;-65
2023/09/06 08:53:21;;;;;;;7.95;6.00;;;;;;;24.76;100.00;102041.19;5030635;28;20017;-59
2023/09/06 08:55:47;;;;;;;10.45;6.38;;;;;;;24.78;100.00;102044.63;5028955;28;20052;-61
2023/09/06 08:58:12;;;;;;;12.57;6.97;;;;;;;24.68;100.00;102039.09;5029500;28;20029;-64
2023/09/06 09:00:39;;;;;;;8.90;5.95;;;;;;;24.79;100.00;102040.94;5028277;28;20143;-64
2023/09/06 09:03:04;;;;;;;10.73;5.45;;;;;;;24.98;100.00;102041.28;5029570;28;20025;-58
2023/09/06 09:05:30;;;;;;;14.75;6.25;;;;;;;25.02;100.00;102041.94;5028787;28;20094;-64
2023/09/06 09:07:59;;;;;;;12.48;5.75;;;;;;;25.07;100.00;102045.13;5028348;28;20032;-64
2023/09/06 09:10:29;;;;;;;10.18;5.35;;;;;;;25.14;100.00;102042.81;5030154;28;20163;-61
2023/09/06 09:12:56;;;;;;;11.15;5.40;;;;;;;25.28;100.00;102039.03;5029596;28;20033;-64
2023/09/06 09:15:22;;;;;;;9.77;5.43;;;;;;;25.31;100.00;102037.94;5027646;28;20025;-65
2023/09/06 09:17:50;;;;;;;11.40;5.63;;;;;;;25.43;100.00;102041.50;5030783;28;20040;-62
2023/09/06 09:20:15;;;;;;;6.97;5.05;;;;;;;25.54;100.00;102036.13;5010418;28;20509;-57
2023/09/06 09:22:41;;;;;;;15.20;5.72;;;;;;;25.64;100.00;102036.25;5008816;28;20049;-64
2023/09/06 09:25:16;;;;;;;12.77;6.00;;;;;;;25.78;100.00;102031.59;5020109;28;20053;-63
2023/09/06 09:27:45;;;;;;;14.32;5.88;;;;;;;25.79;100.00;102033.34;5029324;28;20570;-59
2023/09/06 09:30:14;;;;;;;7.05;5.43;;;;;;;25.88;100.00;102031.72;5028115;28;20052;-63
2023/09/06 09:32:40;;;;;;;10.48;6.15;;;;;;;25.83;100.00;102038.34;5028236;28;20500;-58
2023/09/06 09:35:10;;;;;;;7.78;5.18;;;;;;;25.92;99.16;102039.47;5030628;28;20116;-64
2023/09/06 09:37:36;;;;;;;8.55;5.10;;;;;;;26.10;98.89;102038.94;5026889;28;20021;-61
2023/09/06 09:40:21;;;;;;;7.35;6.15;;;;;;;26.18;96.99;102040.97;5030030;28;20045;-63
2023/09/06 09:42:57;;;;;;;9.82;5.97;;;;;;;25.95;96.93;102041.88;5025981;28;20104;-62
2023/09/06 09:45:24;;;;;;;8.77;5.63;;;;;;;26.09;96.74;102040.75;5028578;28;20033;-57
2023/09/06 09:47:51;;;;;;;16.17;5.95;;;;;;;26.37;96.41;102037.66;5044196;28;20017;-64
2023/09/06 09:50:17;;;;;;;9.25;6.00;;;;;;;26.17;97.40;102042.84;5028283;28;20230;-64
2023/09/06 09:52:44;;;;;;;9.43;6.03;;;;;;;26.31;97.64;102032.78;5029449;28;20557;-58
2023/09/06 09:55:15;;;;;;;8.18;5.47;;;;;;;26.45;96.69;102037.88;5029571;28;20117;-62
2023/09/06 09:57:44;;;;;;;6.60;5.05;;;;;;;26.58;96.10;102035.00;5027572;28;20063;-57
2023/09/06 10:00:13;;;;;;;4.82;4.32;;;;;;;26.71;94.90;102039.38;5027154;28;20033;-66
2023/09/06 10:02:45;;;;;;;9.30;4.80;;;;;;;26.66;95.61;102036.22;5028533;28;20053;-54
2023/09/06 10:05:12;;;;;;;5.72;4.10;;;;;;;26.73;94.78;102030.13;5025608;28;20064;-59
2023/09/06 10:07:41;;;;;;;6.53;4.18;;;;;;;26.93;94.34;102033.00;5028938;28;20179;-63
2023/09/06 10:10:10;;;;;;;5.78;4.13;;;;;;;27.08;92.19;102024.56;5025655;28;20030;-64
2023/09/06 10:12:41;;;;;;;6.85;3.50;;;;;;;27.16;91.53;102032.91;5026684;28;20030;-55
2023/09/06 10:15:08;;;;;;;9.25;4.10;;;;;;;27.30;92.06;102036.25;5025116;28;20368;-61
2023/09/06 10:17:34;;;;;;;8.75;4.18;;;;;;;27.38;90.79;102034.59;5029782;28;20033;-66
2023/09/06 10:19:59;;;;;;;9.82;4.18;;;;;;;27.43;91.12;102023.34;5026469;28;20534;-63
2023/09/06 10:22:25;;;;;;;8.23;3.70;;;;;;;27.57;91.05;102032.94;5026726;28;20368;-64
2023/09/06 10:24:52;;;;;;;6.55;3.50;;;;;;;27.66;89.69;102035.88;5028373;28;20387;-64
2023/09/06 10:27:17;;;;;;;7.05;3.70;;;;;;;27.63;88.45;102029.69;5031503;28;20472;-64
2023/09/06 10:29:53;;;;;;;4.78;3.33;;;;;;;27.62;88.65;102029.81;5026759;28;20049;-65
2023/09/06 10:32:20;;;;;;;5.07;3.17;;;;;;;27.86;89.00;102025.97;5010072;28;20037;-62
2023/09/06 10:34:48;;;;;;;7.80;3.47;;;;;;;27.99;87.87;102023.84;5026976;28;20017;-62
2023/09/06 10:37:15;;;;;;;4.53;3.45;;;;;;;27.86;89.26;102018.69;5026474;28;20037;-64
2023/09/06 10:39:54;;;;;;;6.65;3.35;;;;;;;28.12;89.90;102026.28;5027314;28;20586;-68
2023/09/06 10:42:20;;;;;;;7.55;3.58;;;;;;;28.15;86.96;102032.44;5026931;28;20040;-68
2023/09/06 10:45:00;;;;;;;6.35;3.53;;;;;;;28.17;86.05;102019.63;5060261;28;20387;-67
2023/09/06 10:47:27;;;;;;;9.93;3.58;;;;;;;28.18;85.31;102033.03;5027437;28;20503;-68
2023/09/06 10:50:16;;;;;;;6.72;3.85;;;;;;;28.16;86.19;102020.59;5026881;28;20144;-57
2023/09/06 10:52:53;;;;;;;6.78;3.35;;;;;;;28.41;85.63;102026.53;5028613;28;20037;-69
2023/09/06 10:55:19;;;;;;;9.30;3.30;;;;;;;28.65;85.95;102020.66;5027357;28;20036;-56
2023/09/06 10:58:06;;;;;;;5.97;3.67;;;;;;;28.37;85.30;102021.38;5026234;28;20025;-66
2023/09/06 11:00:31;;;;;;;6.65;3.75;;;;;;;28.61;88.06;102011.09;5026617;28;20025;-67
2023/09/06 11:03:06;;;;;;;6.30;4.03;;;;;;;28.83;85.42;102019.94;5027536;28;20021;-61
2023/09/06 11:05:35;;;;;;;6.05;4.07;;;;;;;29.00;87.62;102016.50;5024754;28;20038;-68
2023/09/06 11:08:01;;;;;;;6.40;3.58;;;;;;;29.14;85.47;102026.03;5025938;28;20036;-64
2023/09/06 11:10:27;;;;;;;7.15;4.38;;;;;;;29.17;83.02;102029.47;5028313;28;20057;-67
2023/09/06 11:12:54;;;;;;;5.85;3.40;;;;;;;29.34;83.63;102023.25;5024776;28;20131;-64
2023/09/06 11:15:19;;;;;;;5.85;3.38;;;;;;;29.54;80.28;102016.88;5024846;28;20036;-69
2023/09/06 11:17:45;;;;;;;4.00;3.38;;;;;;;29.54;81.41;102019.59;5036238;28;20395;-62